createdAt,value
2019-05-23T00:01:34.245Z,12.58
2019-05-23T00:04:04.906Z,12.56
2019-05-23T00:06:32.806Z,12.49
2019-05-23T00:09:00.112Z,12.48
2019-05-23T00:11:39.833Z,12.50
2019-05-23T00:14:19.618Z,12.49
2019-05-23T00:16:47.360Z,12.42
2019-05-23T00:19:13.563Z,12.41
2019-05-23T00:21:41.905Z,12.41
2019-05-23T00:24:07.830Z,12.44
2019-05-23T00:26:35.648Z,12.44
2019-05-23T00:29:10.034Z,12.45
2019-05-23T00:31:36.321Z,12.43
2019-05-23T00:34:03.439Z,12.37
2019-05-23T00:36:31.352Z,12.36
2019-05-23T00:38:57.996Z,12.39
2019-05-23T00:41:24.710Z,12.34
2019-05-23T00:43:51.112Z,12.32
2019-05-23T00:46:18.525Z,12.33
2019-05-23T00:48:45.361Z,12.32
2019-05-23T00:51:11.444Z,12.36
2019-05-23T00:53:38.069Z,12.38
2019-05-23T00:56:04.157Z,12.36
2019-05-23T01:00:59.994Z,12.43
2019-05-23T01:03:28.381Z,12.38
2019-05-23T01:05:54.748Z,12.38
2019-05-23T01:08:20.983Z,12.37
2019-05-23T01:10:48.173Z,12.35
2019-05-23T01:13:15.672Z,12.36
2019-05-23T01:15:42.786Z,12.35
2019-05-23T01:18:10.132Z,12.32
2019-05-23T01:20:43.940Z,12.34
2019-05-23T01:23:10.340Z,12.34
2019-05-23T01:25:37.459Z,12.34
2019-05-23T01:28:05.767Z,12.32
2019-05-23T01:30:37.286Z,12.30
2019-05-23T01:33:03.847Z,12.29
2019-05-23T01:35:30.668Z,12.27
2019-05-23T01:37:57.531Z,12.26
2019-05-23T01:40:24.182Z,12.26
2019-05-23T01:42:50.901Z,12.24
2019-05-23T01:45:18.732Z,12.26
2019-05-23T01:47:47.031Z,12.27
2019-05-23T01:50:15.151Z,12.24
2019-05-23T01:52:41.359Z,12.24
2019-05-23T01:55:09.764Z,12.23
2019-05-23T01:57:35.777Z,12.18
2019-05-23T02:00:10.517Z,12.18
2019-05-23T02:02:35.490Z,12.17
2019-05-23T02:05:03.995Z,12.18
2019-05-23T02:07:30.210Z,12.16
2019-05-23T02:09:56.403Z,12.15
2019-05-23T02:12:22.803Z,12.12
2019-05-23T02:14:48.917Z,12.12
2019-05-23T02:17:15.423Z,12.13
2019-05-23T02:19:42.936Z,12.12
2019-05-23T02:22:10.420Z,12.17
2019-05-23T02:24:37.503Z,12.14
2019-05-23T02:27:04.539Z,12.15
2019-05-23T02:29:30.552Z,12.17
2019-05-23T02:31:58.341Z,12.13
2019-05-23T02:34:24.978Z,12.13
2019-05-23T02:36:51.676Z,12.17
2019-05-23T02:39:36.404Z,12.16
2019-05-23T02:42:21.327Z,12.20
2019-05-23T02:44:47.638Z,12.15
2019-05-23T02:47:15.947Z,12.13
2019-05-23T02:49:42.103Z,12.15
2019-05-23T02:52:18.950Z,12.18
2019-05-23T02:54:47.082Z,12.17
2019-05-23T02:57:15.084Z,12.12
2019-05-23T02:59:45.142Z,12.06
2019-05-23T03:02:39.278Z,12.09
2019-05-23T03:05:09.300Z,12.13
2019-05-23T03:07:35.335Z,12.14
2019-05-23T03:10:04.887Z,12.15
2019-05-23T03:12:30.782Z,12.18
2019-05-23T03:14:58.369Z,12.21
2019-05-23T03:17:28.380Z,12.18
2019-05-23T03:19:56.213Z,12.15
2019-05-23T03:22:31.228Z,12.15
2019-05-23T03:25:00.215Z,12.17
2019-05-23T03:27:26.741Z,12.19
2019-05-23T03:29:53.048Z,12.16
2019-05-23T03:32:39.869Z,12.23
2019-05-23T03:35:17.442Z,12.27
2019-05-23T03:37:43.529Z,12.27
2019-05-23T03:40:12.176Z,12.26
2019-05-23T03:42:40.014Z,12.25
2019-05-23T03:45:08.730Z,12.24
2019-05-23T03:47:36.158Z,12.20
2019-05-23T03:50:06.160Z,12.18
2019-05-23T03:52:33.096Z,12.15
2019-05-23T03:55:01.003Z,12.10
2019-05-23T03:57:28.306Z,12.13
2019-05-23T03:59:56.143Z,12.20
2019-05-23T04:02:23.242Z,12.22
2019-05-23T04:04:50.378Z,12.28
2019-05-23T04:07:16.882Z,12.28
2019-05-23T04:09:43.010Z,12.31
2019-05-23T04:12:09.604Z,12.30
2019-05-23T04:14:36.013Z,12.28
2019-05-23T04:17:02.224Z,12.29
2019-05-23T04:19:28.129Z,12.30
2019-05-23T04:24:17.789Z,12.35
2019-05-23T04:26:44.392Z,12.30
2019-05-23T04:29:10.795Z,12.33
2019-05-23T04:31:36.909Z,12.39
2019-05-23T04:34:03.572Z,12.44
2019-05-23T04:36:30.426Z,12.49
2019-05-23T04:38:56.933Z,12.54
2019-05-23T04:41:23.637Z,12.56
2019-05-23T04:43:49.677Z,12.56
2019-05-23T04:46:15.915Z,12.57
2019-05-23T04:48:42.228Z,12.48
2019-05-23T04:51:08.644Z,12.44
2019-05-23T04:53:35.454Z,12.48
2019-05-23T04:56:02.471Z,12.54
2019-05-23T04:58:28.667Z,12.50
2019-05-23T05:00:54.979Z,12.52
2019-05-23T05:03:21.601Z,12.48
2019-05-23T05:05:48.208Z,12.48
2019-05-23T05:08:14.746Z,12.53
2019-05-23T05:10:42.365Z,12.56
2019-05-23T05:13:08.763Z,12.54
2019-05-23T05:15:35.378Z,12.54
2019-05-23T05:18:02.547Z,12.56
2019-05-23T05:20:28.652Z,12.59
2019-05-23T05:22:54.931Z,12.62
2019-05-23T05:25:20.929Z,12.65
2019-05-23T05:27:47.027Z,12.59
2019-05-23T05:30:14.887Z,12.55
2019-05-23T05:32:45.348Z,12.58
2019-05-23T05:35:09.048Z,12.53
2019-05-23T05:37:35.748Z,12.58
2019-05-23T05:40:03.989Z,12.57
2019-05-23T05:42:30.527Z,12.58
2019-05-23T05:44:56.550Z,12.62
2019-05-23T05:47:23.061Z,12.57
2019-05-23T05:49:49.596Z,12.58
2019-05-23T05:52:15.729Z,12.54
2019-05-23T05:54:41.923Z,12.47
2019-05-23T05:57:08.161Z,12.49
2019-05-23T05:59:34.562Z,12.57
2019-05-23T06:02:01.008Z,12.64
2019-05-23T06:04:27.540Z,12.68
2019-05-23T06:06:55.647Z,12.71
2019-05-23T06:09:26.172Z,12.69
2019-05-23T06:11:52.773Z,12.69
2019-05-23T06:14:19.087Z,12.69
2019-05-23T06:16:45.643Z,12.65
2019-05-23T06:19:12.703Z,12.68
2019-05-23T06:21:40.608Z,12.68
2019-05-23T06:24:07.006Z,12.70
2019-05-23T06:26:33.517Z,12.67
2019-05-23T06:28:59.830Z,12.70
2019-05-23T06:31:26.239Z,12.70
2019-05-23T06:33:52.948Z,12.73
2019-05-23T06:36:19.058Z,12.69
2019-05-23T06:38:45.916Z,12.62
2019-05-23T06:41:12.970Z,12.57
2019-05-23T06:43:39.187Z,12.56
2019-05-23T06:46:05.917Z,12.55
2019-05-23T06:48:33.030Z,12.56
2019-05-23T06:50:59.167Z,12.65
2019-05-23T06:53:25.267Z,12.69
2019-05-23T06:55:51.416Z,12.72
2019-05-23T06:58:17.836Z,12.80
2019-05-23T07:00:44.453Z,12.90
2019-05-23T07:03:11.180Z,12.98
2019-05-23T07:05:37.604Z,13.00
2019-05-23T07:08:04.218Z,13.05
2019-05-23T07:10:30.208Z,13.07
2019-05-23T07:12:56.303Z,13.08
2019-05-23T07:15:23.429Z,13.11
2019-05-23T07:17:50.175Z,13.16
2019-05-23T07:20:16.703Z,13.16
2019-05-23T07:22:43.126Z,13.22
2019-05-23T07:25:09.679Z,13.23
2019-05-23T07:27:35.803Z,13.22
2019-05-23T07:30:05.312Z,13.26
2019-05-23T07:32:31.367Z,13.31
2019-05-23T07:34:57.395Z,13.32
2019-05-23T07:37:23.567Z,13.37
2019-05-23T07:39:50.077Z,13.37
2019-05-23T07:42:16.390Z,13.36
2019-05-23T07:44:48.296Z,13.37
2019-05-23T07:47:12.630Z,13.40
2019-05-23T07:49:38.647Z,13.42
2019-05-23T07:52:04.754Z,13.38
2019-05-23T07:54:32.698Z,13.38
2019-05-23T07:56:59.439Z,13.39
2019-05-23T07:59:26.508Z,13.43
2019-05-23T08:01:57.227Z,13.45
2019-05-23T08:04:23.470Z,13.42
2019-05-23T08:06:49.610Z,13.43
2019-05-23T08:09:17.328Z,13.43
2019-05-23T08:11:43.349Z,13.44
2019-05-23T08:14:11.981Z,13.44
2019-05-23T08:16:37.621Z,13.45
2019-05-23T08:19:04.556Z,13.50
2019-05-23T08:21:30.554Z,13.49
2019-05-23T08:23:56.860Z,13.52
2019-05-23T08:26:24.988Z,13.55
2019-05-23T08:29:12.706Z,13.57
2019-05-23T08:31:19.375Z,13.61
2019-05-23T08:33:45.524Z,13.63
2019-05-23T08:36:12.526Z,13.65
2019-05-23T08:38:39.148Z,13.67
2019-05-23T08:41:05.359Z,13.70
2019-05-23T08:43:31.478Z,13.72
2019-05-23T08:45:57.794Z,13.74
2019-05-23T08:48:24.216Z,13.76
2019-05-23T08:50:51.507Z,13.75
2019-05-23T08:53:18.039Z,13.73
2019-05-23T08:55:44.145Z,13.73
2019-05-23T08:58:11.359Z,13.74
2019-05-23T09:00:40.888Z,13.71
2019-05-23T09:03:07.022Z,13.69
2019-05-23T09:05:34.307Z,13.72
2019-05-23T09:08:01.343Z,13.71
2019-05-23T09:10:29.151Z,13.71
2019-05-23T09:12:55.900Z,13.72
2019-05-23T09:15:22.592Z,13.72
2019-05-23T09:17:53.479Z,13.75
2019-05-23T09:20:17.349Z,13.80
2019-05-23T09:22:43.444Z,13.76
2019-05-23T09:25:10.047Z,13.77
2019-05-23T09:27:36.457Z,13.78
2019-05-23T09:30:06.057Z,13.80
2019-05-23T09:32:32.062Z,13.79
2019-05-23T09:34:58.084Z,13.87
2019-05-23T09:37:24.399Z,13.94
2019-05-23T09:39:50.745Z,13.97
2019-05-23T09:42:16.939Z,14.00
2019-05-23T09:44:43.094Z,14.00
2019-05-23T09:47:09.072Z,13.95
2019-05-23T09:49:35.174Z,14.00
2019-05-23T09:52:01.759Z,13.96
2019-05-23T09:54:27.825Z,13.97
2019-05-23T09:56:54.055Z,13.94
2019-05-23T09:59:20.191Z,13.95
2019-05-23T10:01:47.386Z,14.01
2019-05-23T10:04:13.447Z,14.03
2019-05-23T10:06:39.882Z,14.03
2019-05-23T10:09:07.307Z,14.05
2019-05-23T10:11:33.821Z,14.02
2019-05-23T10:14:01.040Z,14.01
2019-05-23T10:16:27.340Z,13.97
2019-05-23T10:18:53.880Z,14.00
2019-05-23T10:21:19.982Z,13.99
2019-05-23T10:23:46.124Z,13.93
2019-05-23T10:26:13.237Z,13.94
2019-05-23T10:28:39.240Z,13.95
2019-05-23T10:31:07.143Z,13.92
2019-05-23T10:33:33.159Z,13.88
2019-05-23T10:36:01.165Z,13.90
2019-05-23T10:38:29.431Z,13.90
2019-05-23T10:40:55.347Z,13.84
2019-05-23T10:43:21.447Z,13.84
2019-05-23T10:45:47.651Z,13.85
2019-05-23T10:48:14.862Z,13.89
2019-05-23T10:50:44.849Z,13.93
2019-05-23T10:53:09.494Z,13.97
2019-05-23T10:55:35.609Z,14.00
2019-05-23T10:58:02.517Z,13.89
2019-05-23T11:00:29.644Z,13.87
2019-05-23T11:02:56.100Z,13.87
2019-05-23T11:05:22.267Z,13.81
2019-05-23T11:07:49.196Z,13.85
2019-05-23T11:10:16.586Z,13.88
2019-05-23T11:12:42.804Z,13.82
2019-05-23T11:15:09.314Z,13.81
2019-05-23T11:17:35.546Z,13.79
2019-05-23T11:20:05.341Z,13.76
2019-05-23T11:22:31.440Z,13.75
2019-05-23T11:24:57.470Z,13.78
2019-05-23T11:27:23.601Z,13.75
2019-05-23T11:29:49.763Z,13.77
2019-05-23T11:32:19.843Z,13.78
2019-05-23T11:34:44.550Z,13.76
2019-05-23T11:37:10.653Z,13.79
2019-05-23T11:39:41.971Z,13.74
2019-05-23T11:42:05.228Z,13.78
2019-05-23T11:44:31.253Z,13.82
2019-05-23T11:46:57.360Z,13.86
2019-05-23T11:49:23.884Z,13.90
2019-05-23T11:51:50.036Z,13.93
2019-05-23T11:54:16.165Z,13.95
2019-05-23T11:56:42.451Z,13.91
2019-05-23T11:59:08.642Z,13.94
2019-05-23T12:01:36.643Z,13.96
2019-05-23T12:04:07.726Z,14.01
2019-05-23T12:06:53.749Z,14.07
2019-05-23T12:09:05.389Z,14.06
2019-05-23T12:11:36.361Z,14.12
2019-05-23T12:14:00.196Z,14.17
2019-05-23T12:16:27.402Z,14.21
2019-05-23T12:18:53.413Z,14.29
2019-05-23T12:21:19.933Z,14.31
2019-05-23T12:23:46.066Z,14.35
2019-05-23T12:26:12.075Z,14.38
2019-05-23T12:28:38.381Z,14.47
2019-05-23T12:31:05.617Z,14.54
2019-05-23T12:33:31.823Z,14.62
2019-05-23T12:35:57.891Z,14.69
2019-05-23T12:38:23.895Z,14.71
2019-05-23T12:40:50.073Z,14.62
2019-05-23T12:43:16.175Z,14.63
2019-05-23T12:45:42.303Z,14.73
2019-05-23T12:48:19.312Z,14.72
2019-05-23T12:50:46.821Z,14.70
2019-05-23T12:53:14.939Z,14.63
2019-05-23T12:55:41.152Z,14.57
2019-05-23T12:58:07.164Z,14.58
2019-05-23T13:00:35.672Z,14.51
2019-05-23T13:03:02.140Z,14.39
2019-05-23T13:05:28.666Z,14.36
2019-05-23T13:07:55.226Z,14.31
2019-05-23T13:10:24.805Z,14.18
2019-05-23T13:12:49.639Z,14.14
2019-05-23T13:15:16.851Z,14.17
2019-05-23T13:17:42.893Z,14.20
2019-05-23T13:20:09.195Z,14.11
2019-05-23T13:22:35.383Z,14.12
2019-05-23T13:25:01.685Z,14.07
2019-05-23T13:27:28.497Z,14.05
2019-05-23T13:29:54.604Z,14.01
2019-05-23T13:32:20.709Z,13.96
2019-05-23T13:34:46.850Z,14.02
2019-05-23T13:37:16.973Z,14.00
2019-05-23T13:39:43.112Z,13.98
2019-05-23T13:42:09.235Z,14.05
2019-05-23T13:44:36.122Z,14.09
2019-05-23T13:47:02.682Z,14.02
2019-05-23T13:49:28.821Z,14.03
2019-05-23T13:51:55.469Z,14.09
2019-05-23T13:54:22.197Z,14.09
2019-05-23T13:56:48.354Z,13.98
2019-05-23T13:59:14.447Z,13.91
2019-05-23T14:01:41.140Z,13.95
2019-05-23T14:04:07.405Z,13.94
2019-05-23T14:06:33.515Z,13.86
2019-05-23T14:08:59.660Z,13.84
2019-05-23T14:11:25.863Z,13.83
2019-05-23T14:13:59.704Z,13.87
2019-05-23T14:17:02.599Z,13.83
2019-05-23T14:19:29.745Z,13.79
2019-05-23T14:21:56.263Z,13.76
2019-05-23T14:24:22.389Z,13.70
2019-05-23T14:26:56.424Z,13.71
2019-05-23T14:29:22.535Z,13.68
2019-05-23T14:31:53.833Z,13.66
2019-05-23T14:34:19.943Z,13.66
2019-05-23T14:36:47.955Z,13.60
2019-05-23T14:39:16.096Z,13.62
2019-05-23T14:41:53.090Z,13.58
2019-05-23T14:44:19.229Z,13.50
2019-05-23T14:46:47.142Z,13.46
2019-05-23T14:49:15.071Z,13.33
2019-05-23T14:51:43.168Z,13.38
2019-05-23T14:54:13.835Z,13.38
2019-05-23T14:56:40.847Z,13.38
2019-05-23T14:59:06.963Z,13.39
2019-05-23T15:01:34.081Z,13.33
2019-05-23T15:04:00.081Z,13.38
2019-05-23T15:06:26.221Z,13.37
2019-05-23T15:08:52.733Z,13.31
2019-05-23T15:11:18.903Z,13.25
2019-05-23T15:13:45.005Z,13.24
2019-05-23T15:16:11.261Z,13.25
2019-05-23T15:18:37.379Z,13.23
2019-05-23T15:21:03.611Z,13.24
2019-05-23T15:23:29.614Z,13.16
2019-05-23T15:25:55.762Z,13.13
2019-05-23T15:28:21.997Z,13.13
2019-05-23T15:30:47.953Z,13.18
2019-05-23T15:33:14.077Z,13.17
2019-05-23T15:35:40.130Z,13.12
2019-05-23T15:38:06.132Z,13.08
2019-05-23T15:40:32.182Z,13.03
2019-05-23T15:42:58.399Z,12.99
2019-05-23T15:45:24.635Z,12.99
2019-05-23T15:47:51.353Z,12.97
2019-05-23T15:50:19.552Z,12.99
2019-05-23T15:52:47.597Z,13.03
2019-05-23T15:58:14.018Z,12.93
2019-05-23T16:01:00.323Z,12.88
2019-05-23T16:03:45.222Z,12.89
2019-05-23T16:06:14.238Z,12.84
2019-05-23T16:08:40.380Z,12.75
2019-05-23T16:11:06.790Z,12.82
2019-05-23T16:13:33.600Z,12.83
2019-05-23T16:16:00.223Z,12.83
2019-05-23T16:18:26.230Z,12.84
2019-05-23T16:20:52.164Z,12.79
2019-05-23T16:23:18.453Z,12.71
2019-05-23T16:25:44.636Z,12.74
2019-05-23T16:28:11.129Z,12.68
2019-05-23T16:30:37.801Z,12.68
2019-05-23T16:33:03.906Z,12.68
2019-05-23T16:35:30.353Z,12.62
2019-05-23T16:38:03.284Z,12.57
2019-05-23T16:40:29.864Z,12.55
2019-05-23T16:42:56.013Z,12.56
2019-05-23T16:45:22.118Z,12.61
2019-05-23T16:47:48.403Z,12.61
2019-05-23T16:50:14.595Z,12.59
2019-05-23T16:52:40.613Z,12.59
2019-05-23T16:55:09.218Z,12.56
2019-05-23T16:57:37.127Z,12.56
2019-05-23T17:00:16.344Z,12.53
2019-05-23T17:02:44.182Z,12.54
2019-05-23T17:05:27.871Z,12.43
2019-05-23T17:08:11.953Z,12.44
2019-05-23T17:10:51.881Z,12.45
2019-05-23T17:13:29.287Z,12.46
2019-05-23T17:16:03.316Z,12.43
2019-05-23T17:18:49.263Z,12.44
2019-05-23T17:21:17.273Z,12.37
2019-05-23T17:23:47.728Z,12.38
2019-05-23T17:26:18.762Z,12.39
2019-05-23T17:28:46.682Z,12.42
2019-05-23T17:31:14.633Z,12.42
2019-05-23T17:33:40.851Z,12.38
2019-05-23T17:36:06.957Z,12.40
2019-05-23T17:38:33.065Z,12.39
2019-05-23T17:40:59.170Z,12.37
2019-05-23T17:43:25.347Z,12.34
2019-05-23T17:45:51.439Z,12.29
2019-05-23T17:48:18.042Z,12.30
2019-05-23T17:50:44.198Z,12.34
2019-05-23T17:53:10.189Z,12.32
2019-05-23T17:55:36.428Z,12.31
2019-05-23T17:58:02.764Z,12.35
2019-05-23T18:00:33.769Z,12.34
2019-05-23T18:03:00.080Z,12.36
2019-05-23T18:05:26.344Z,12.38
2019-05-23T18:07:52.921Z,12.36
2019-05-23T18:10:19.571Z,12.34
2019-05-23T18:12:45.981Z,12.31
2019-05-23T18:15:13.003Z,12.28
2019-05-23T18:17:39.561Z,12.28
2019-05-23T18:20:06.560Z,12.21
2019-05-23T18:22:32.863Z,12.23
2019-05-23T18:24:59.892Z,12.19
2019-05-23T18:27:26.154Z,12.09
2019-05-23T18:29:52.572Z,12.04
2019-05-23T18:32:20.588Z,12.01
2019-05-23T18:34:47.267Z,12.00
2019-05-23T18:37:13.478Z,12.01
2019-05-23T18:39:40.700Z,12.02
2019-05-23T18:42:07.153Z,12.02
2019-05-23T18:44:33.357Z,12.08
2019-05-23T18:47:01.365Z,12.10
2019-05-23T18:49:28.067Z,12.09
2019-05-23T18:51:54.576Z,12.07
2019-05-23T18:54:20.788Z,12.11
2019-05-23T18:56:46.897Z,12.05
2019-05-23T18:59:13.401Z,12.01
2019-05-23T19:01:39.609Z,11.98
2019-05-23T19:04:06.412Z,12.02
2019-05-23T19:06:32.969Z,12.09
2019-05-23T19:08:59.675Z,12.10
2019-05-23T19:11:25.786Z,12.11
2019-05-23T19:13:51.702Z,12.15
2019-05-23T19:16:17.721Z,12.19
2019-05-23T19:18:43.984Z,12.12
2019-05-23T19:21:12.434Z,12.09
2019-05-23T19:23:39.049Z,12.04
2019-05-23T19:26:05.249Z,11.99
2019-05-23T19:28:31.262Z,12.04
2019-05-23T19:30:57.581Z,12.03
2019-05-23T19:33:24.510Z,12.10
2019-05-23T19:35:51.107Z,12.17
2019-05-23T19:38:17.329Z,12.10
2019-05-23T19:40:44.361Z,12.13
2019-05-23T19:43:12.349Z,12.17
2019-05-23T19:45:38.474Z,12.12
2019-05-23T19:48:04.867Z,12.08
2019-05-23T19:50:31.108Z,12.12
2019-05-23T19:52:57.119Z,12.16
2019-05-23T19:55:23.255Z,12.20
2019-05-23T19:57:49.508Z,12.14
2019-05-23T20:00:17.629Z,12.09
2019-05-23T20:02:51.550Z,12.05
2019-05-23T20:05:35.830Z,11.93
2019-05-23T20:08:02.012Z,11.89
2019-05-23T20:10:29.187Z,11.93
2019-05-23T20:12:55.297Z,11.97
2019-05-23T20:15:22.389Z,11.96
2019-05-23T20:17:51.878Z,11.97
2019-05-23T20:20:16.710Z,11.94
2019-05-23T20:22:42.715Z,11.91
2019-05-23T20:25:09.146Z,11.85
2019-05-23T20:27:35.147Z,11.87
2019-05-23T20:30:01.261Z,11.86
2019-05-23T20:32:27.364Z,11.86
2019-05-23T20:34:53.562Z,11.85
2019-05-23T20:37:21.628Z,11.87
2019-05-23T20:39:47.658Z,11.92
2019-05-23T20:42:13.765Z,11.91
2019-05-23T20:44:40.008Z,11.91
2019-05-23T20:47:08.152Z,11.91
2019-05-23T20:49:34.202Z,11.86
2019-05-23T20:52:00.245Z,11.85
2019-05-23T20:54:26.353Z,11.83
2019-05-23T20:56:52.362Z,11.83
2019-05-23T20:59:18.467Z,11.78
2019-05-23T21:01:44.911Z,11.71
2019-05-23T21:04:11.113Z,11.68
2019-05-23T21:06:37.110Z,11.69
2019-05-23T21:09:05.620Z,11.57
2019-05-23T21:11:31.779Z,11.59
2019-05-23T21:13:57.787Z,11.66
2019-05-23T21:16:23.898Z,11.72
2019-05-23T21:18:50.442Z,11.75
2019-05-23T21:21:16.611Z,11.76
2019-05-23T21:23:42.821Z,11.74
2019-05-23T21:26:08.929Z,11.71
2019-05-23T21:28:35.294Z,11.70
2019-05-23T21:31:01.944Z,11.69
2019-05-23T21:33:28.360Z,11.69
2019-05-23T21:35:54.757Z,11.61
2019-05-23T21:38:21.061Z,11.60
2019-05-23T21:40:47.167Z,11.64
2019-05-23T21:43:13.267Z,11.60
2019-05-23T21:45:39.970Z,11.60
2019-05-23T21:48:06.143Z,11.62
2019-05-23T21:50:32.227Z,11.66
2019-05-23T21:52:58.266Z,11.70
2019-05-23T21:55:38.538Z,11.74
2019-05-23T21:58:05.768Z,11.77
2019-05-23T22:01:07.755Z,11.79
2019-05-23T22:03:46.142Z,11.81
2019-05-23T22:06:14.156Z,11.82
2019-05-23T22:08:40.472Z,11.82
2019-05-23T22:11:06.870Z,11.78
2019-05-23T22:13:33.003Z,11.76
2019-05-23T22:15:59.287Z,11.76
2019-05-23T22:18:25.899Z,11.76
2019-05-23T22:20:52.006Z,11.76
2019-05-23T22:23:18.518Z,11.77
2019-05-23T22:25:44.527Z,11.79
2019-05-23T22:28:10.567Z,11.78
2019-05-23T22:30:36.896Z,11.80
2019-05-23T22:33:03.977Z,11.82
2019-05-23T22:35:30.414Z,11.83
2019-05-23T22:37:56.699Z,11.85
2019-05-23T22:40:23.040Z,11.77
2019-05-23T22:42:49.085Z,11.66
2019-05-23T22:45:17.216Z,11.64
2019-05-23T22:47:43.250Z,11.58
2019-05-23T22:50:09.560Z,11.62
2019-05-23T22:52:35.674Z,11.64
2019-05-23T22:55:01.888Z,11.55
2019-05-23T22:57:27.930Z,11.52
2019-05-23T22:59:53.961Z,11.58
2019-05-23T23:02:20.069Z,11.55
2019-05-23T23:04:45.973Z,11.47
2019-05-23T23:07:12.818Z,11.46
2019-05-23T23:09:38.938Z,11.39
2019-05-23T23:12:05.134Z,11.36
2019-05-23T23:14:31.240Z,11.39
2019-05-23T23:16:57.592Z,11.42
2019-05-23T23:19:23.929Z,11.39
2019-05-23T23:21:49.845Z,11.46
2019-05-23T23:24:16.282Z,11.52
2019-05-23T23:26:42.424Z,11.61
2019-05-23T23:29:08.638Z,11.66
2019-05-23T23:31:34.871Z,11.69
2019-05-23T23:34:00.975Z,11.68
2019-05-23T23:36:27.123Z,11.64
2019-05-23T23:38:53.230Z,11.62
2019-05-23T23:41:19.338Z,11.58
2019-05-23T23:43:58.660Z,11.60
2019-05-23T23:46:32.459Z,11.63
2019-05-23T23:49:16.827Z,11.69
2019-05-23T23:52:01.296Z,11.67
2019-05-23T23:54:45.531Z,11.56
2019-05-23T23:57:29.900Z,11.39
2019-05-23T23:59:57.918Z,11.24
